Denver, CO (80244)

1:56 PM MDT on September 19, 2014 (GMT -0600)
Geography and Env. Sciences, CU Denver | Change Station
CLOSE
Current Station
Personal Weather Station
Location: Denver, CO
Elevation: 5225 ft
Nearby Weather Stations

Elev 5225 ft 39.75 °N, 105.00 °W | Updated 59 seconds ago

Clear
Clear
85.2 °F
Feels Like 82 °F
N
2.0
Wind Variable Wind from SSE
Gusts 5.0 mph

Today
High -- | Low -- °F
--% Chance of Precip.
Yesterday
High -- | Low -- °F
Precip. -- in
6:44 AM 7:01 PM
Waning Crescent, 17% visible
Pressure 29.83 in
Visibility 10.0 miles
Clouds Few 11000 ft
Few 15000 ft
Few 20000 ft
Heat Index 82 °F
Dew Point 42 °F
Humidity 22%
Rainfall 0.00 in
Snow Depth 1 in , 0 in , 1 in
UV 8.6 out of 12
Pollen 7.50 out of 12
Ozone Good
PM2.5 Good
Flu Activity Not available.
METAR KAPA 191853Z 08005KT 10SM FEW110 FEW150 FEW200 27/04 A3006 RMK AO2 SLP102 VIRGA DSNT W TCU DSNT S-NW T02720039

More Conditions Fewer Conditions

Pressure 29.83 in
Visibility 10.0 miles
Clouds Few 11000 ft
Few 15000 ft
Few 20000 ft
Heat Index 82 °F
Dew Point 42 °F
Humidity 22%
Rainfall 0.00 in
Snow Depth 1 in , 0 in , 1 in
UV 8.6 out of 12
Pollen 7.50 out of 12
Ozone Good
PM2.5 Good
Flu Activity Not available.
METAR KAPA 191853Z 08005KT 10SM FEW110 FEW150 FEW200 27/04 A3006 RMK AO2 SLP102 VIRGA DSNT W TCU DSNT S-NW T02720039

More Conditions Fewer Conditions

10-Day Weather Forecast

Almanac

Astronomy

Sep. 19, 2014 Rise Set
Actual Time 6:44 AM MDT 7:01 PM MDT
Civil Twilight 6:17 AM MDT 7:28 PM MDT
Nautical Twilight 5:46 AM MDT 8:00 PM MDT
Astronomical Twilight 5:13 AM MDT 8:32 PM MDT
Moon 2:32 AM MDT 4:31 PM MDT
Length of Visible Light 13h 11m
Length of Day
12h 17m
Tomorrow will be 2m 36s shorter.
Waning Crescent, 17% of the Moon is Illuminated
Today
Waning Crescent
Sep 24
New
Oct 1
First Quarter
Oct 8
Full
Oct 15
Last Quarter

Today's Extremes

State Highs State Lows

Community

WunderPhotos

Upload Photos

1,754,687 photos uploaded!

WunderBlogs® & News

By Dr. Jeff Masters
Director of Meteorology, Weather Underground
By Kari Strenfel
Meteorologist, Weather Underground
By Christopher C. Burt
Weather Historian, Weather Underground
September 19, 2014
September 19, 2014
September 19, 2014

Nearby

Air Quality

  Air Quality AQ Index Pollutant
Yesterday Moderate
OZONE
Yesterday Good
PM10
Current Good
OZONE
Current Good
PM2.5
Friday Moderate
OZONE
Friday Good
PM2.5

Snow Depth

Station Depth Elevation
Rough And Tumble 1 in 10360 ft
Scotch Creek 0 in 9100 ft
Arapaho Ridge 1 in 10960 ft
Vallecito 0 in 10880 ft
Mccoy Park 9 in 9480 ft

Earthquake Activity

City Distance Mag. Time & Date
No recent earthquake activity has been reported nearby.
Minimum magnitude displayed is 2.5.

Coastal Water Temperatures

Place Temperature
No Stations Reporting

Nearby Weather Stations